Time;durP1;ratioP1;P1;durP2;ratioP2;P2;SDS_P1;SDS_P2;PMS_P1;PMS_P2;Temp;Humidity;BMP_temperature;BMP_pressure;BME280_temperature;BME280_humidity;BME280_pressure;Samples;Min_cycle;Max_cycle;Signal;HPM_P1;HPM_P2
2023/02/23 00:01:39;;;;;;;14.23;11.00;;;9.90;1.00;;;;;;5038965;28;20856;-59
2023/02/23 00:04:05;;;;;;;14.47;12.30;;;9.80;1.00;;;;;;5039899;28;20425;-59
2023/02/23 00:06:32;;;;;;;14.97;11.30;;;9.80;1.00;;;;;;5045411;28;20458;-59
2023/02/23 00:09:00;;;;;;;17.10;11.20;;;9.70;1.00;;;;;;5041567;28;20545;-59
2023/02/23 00:11:26;;;;;;;13.90;10.93;;;9.70;1.00;;;;;;5043064;28;20848;-58
2023/02/23 00:13:52;;;;;;;13.97;10.50;;;9.60;1.00;;;;;;5045459;28;20462;-58
2023/02/23 00:16:21;;;;;;;16.10;11.27;;;9.60;1.00;;;;;;5042647;28;20972;-58
2023/02/23 00:18:52;;;;;;;15.80;12.07;;;9.60;1.00;;;;;;5043914;28;20447;-59
2023/02/23 00:21:22;;;;;;;15.67;11.50;;;9.50;1.00;;;;;;5048342;28;20491;-58
2023/02/23 00:23:54;;;;;;;13.87;11.30;;;9.50;1.00;;;;;;5053957;28;20811;-59
2023/02/23 00:26:22;;;;;;;14.57;11.60;;;9.50;1.00;;;;;;5049697;28;20736;-59
2023/02/23 00:28:49;;;;;;;16.60;12.73;;;9.40;1.00;;;;;;5047517;28;20460;-59
2023/02/23 00:31:15;;;;;;;14.57;11.47;;;9.40;1.00;;;;;;5042322;28;20983;-59
2023/02/23 00:33:41;;;;;;;15.37;11.70;;;9.40;1.00;;;;;;5040938;28;20545;-57
2023/02/23 00:36:13;;;;;;;21.47;12.40;;;9.30;1.00;;;;;;5044677;28;20421;-59
2023/02/23 00:38:40;;;;;;;18.50;11.90;;;9.40;1.00;;;;;;5055171;28;20180;-58
2023/02/23 00:41:11;;;;;;;16.27;12.30;;;9.50;1.00;;;;;;5056912;28;20772;-59
2023/02/23 00:43:48;;;;;;;14.77;11.57;;;9.40;1.00;;;;;;5042582;28;20424;-59
2023/02/23 00:46:20;;;;;;;17.13;12.70;;;9.40;1.00;;;;;;5043270;28;20475;-61
2023/02/23 00:48:47;;;;;;;16.53;12.20;;;9.40;1.00;;;;;;5041272;28;20430;-58
2023/02/23 00:51:14;;;;;;;15.10;12.00;;;9.30;1.00;;;;;;5046085;28;20836;-59
2023/02/23 00:53:40;;;;;;;18.80;12.40;;;9.30;1.00;;;;;;5040657;28;20475;-59
2023/02/23 00:56:08;;;;;;;22.60;12.07;;;9.30;1.00;;;;;;5045281;28;20530;-59
2023/02/23 00:58:34;;;;;;;20.30;14.60;;;9.30;1.00;;;;;;5046407;28;20451;-59
2023/02/23 01:01:00;;;;;;;17.90;12.60;;;9.30;1.00;;;;;;5049236;28;20472;-58
2023/02/23 01:03:27;;;;;;;15.33;11.20;;;9.30;1.00;;;;;;5043680;28;20234;-58
2023/02/23 01:05:54;;;;;;;16.13;11.20;;;9.30;1.00;;;;;;5048877;28;21007;-58
2023/02/23 01:08:23;;;;;;;15.00;11.30;;;9.40;1.00;;;;;;5049430;28;20447;-59
2023/02/23 01:10:52;;;;;;;18.90;12.40;;;9.40;1.00;;;;;;5042786;28;20947;-58
2023/02/23 01:13:22;;;;;;;15.03;11.90;;;9.40;1.00;;;;;;5048562;28;20466;-59
2023/02/23 01:15:48;;;;;;;16.43;12.63;;;9.40;1.00;;;;;;5045238;28;20501;-58
2023/02/23 01:18:15;;;;;;;17.83;12.57;;;9.40;1.00;;;;;;5047896;28;20480;-59
2023/02/23 01:20:41;;;;;;;16.53;11.80;;;9.50;1.00;;;;;;5048244;28;20801;-58
2023/02/23 01:23:09;;;;;;;14.80;11.57;;;9.40;1.00;;;;;;5045080;28;20443;-57
2023/02/23 01:25:35;;;;;;;15.93;12.33;;;9.40;1.00;;;;;;5049243;28;20887;-57
2023/02/23 01:28:00;;;;;;;17.83;12.80;;;9.40;1.00;;;;;;5043493;28;20451;-58
2023/02/23 01:30:26;;;;;;;17.23;12.80;;;9.40;1.00;;;;;;5057662;28;20265;-58
2023/02/23 01:32:52;;;;;;;13.80;11.63;;;9.30;1.00;;;;;;5047670;28;20268;-58
2023/02/23 01:35:17;;;;;;;17.23;12.60;;;9.40;1.00;;;;;;5044247;28;20219;-58
2023/02/23 01:37:43;;;;;;;16.50;12.67;;;9.40;1.00;;;;;;5047282;28;20219;-59
2023/02/23 01:40:27;;;;;;;16.07;11.23;;;9.40;1.00;;;;;;5058475;28;20180;-58
2023/02/23 01:43:10;;;;;;;15.77;12.60;;;9.40;1.00;;;;;;5047412;28;20680;-58
2023/02/23 01:45:39;;;;;;;18.63;14.10;;;9.40;1.00;;;;;;5047636;28;20455;-60
2023/02/23 01:48:34;;;;;;;15.80;12.67;;;9.40;1.00;;;;;;5047347;28;20418;-58
2023/02/23 01:51:17;;;;;;;17.53;12.33;;;9.30;1.00;;;;;;5047330;28;20451;-59
2023/02/23 01:54:04;;;;;;;18.07;12.53;;;9.40;1.00;;;;;;5048561;28;21110;-57
2023/02/23 01:56:35;;;;;;;18.03;12.40;;;9.40;1.00;;;;;;5048615;28;20409;-59
2023/02/23 01:59:05;;;;;;;22.63;12.87;;;9.40;1.00;;;;;;5048531;28;20613;-58
2023/02/23 02:01:31;;;;;;;15.43;11.50;;;9.40;1.00;;;;;;5046352;28;20429;-58
2023/02/23 02:04:06;;;;;;;17.50;13.17;;;9.40;1.00;;;;;;5046000;28;20447;-59
2023/02/23 02:06:34;;;;;;;16.30;12.03;;;9.40;1.00;;;;;;5041704;28;20199;-58
2023/02/23 02:09:06;;;;;;;19.20;13.23;;;9.40;1.00;;;;;;5048881;28;20591;-58
2023/02/23 02:11:37;;;;;;;17.13;11.57;;;9.40;1.00;;;;;;5047601;28;20537;-59
2023/02/23 02:14:14;;;;;;;16.63;12.40;;;9.40;1.00;;;;;;5045195;28;20659;-58
2023/02/23 02:16:44;;;;;;;18.97;12.70;;;9.60;1.00;;;;;;5046629;28;20452;-59
2023/02/23 02:19:20;;;;;;;17.80;13.37;;;9.60;1.00;;;;;;5055143;28;20439;-58
2023/02/23 02:22:03;;;;;;;19.37;13.00;;;9.70;1.00;;;;;;5054738;28;20579;-57
2023/02/23 02:25:02;;;;;;;19.30;13.77;;;9.70;1.00;;;;;;5045809;28;20458;-59
2023/02/23 02:27:36;;;;;;;19.13;13.00;;;9.70;1.00;;;;;;5043761;28;20458;-59
2023/02/23 02:30:30;;;;;;;16.50;13.00;;;9.70;1.00;;;;;;5046985;28;20488;-58
2023/02/23 02:33:18;;;;;;;20.60;14.10;;;9.70;1.00;;;;;;5044806;28;20466;-58
2023/02/23 02:36:20;;;;;;;18.87;13.43;;;9.70;1.00;;;;;;5047276;28;20957;-58
2023/02/23 02:38:52;;;;;;;18.00;12.67;;;9.70;1.00;;;;;;5034187;28;20445;-59
2023/02/23 02:41:28;;;;;;;19.93;13.57;;;9.80;1.00;;;;;;5044398;28;20413;-58
2023/02/23 02:43:53;;;;;;;17.27;13.00;;;9.80;1.00;;;;;;5042595;28;20450;-60
2023/02/23 02:46:43;;;;;;;20.13;13.57;;;9.90;1.00;;;;;;5049099;28;20500;-58
2023/02/23 02:49:17;;;;;;;17.97;12.67;;;9.90;1.00;;;;;;5043342;28;20192;-58
2023/02/23 02:51:59;;;;;;;19.50;14.17;;;9.90;1.00;;;;;;5043160;28;22354;-58
2023/02/23 02:54:42;;;;;;;19.30;13.40;;;10.00;1.00;;;;;;5043482;28;20841;-58
2023/02/23 02:57:10;;;;;;;18.60;14.27;;;10.00;1.00;;;;;;5041271;28;20414;-59
2023/02/23 04:18:04;;;;;;;19.03;14.13;;;9.90;1.00;;;;;;5048534;28;20503;-58
2023/02/23 04:20:30;;;;;;;23.57;13.93;;;10.20;1.00;;;;;;5047778;28;20455;-58
2023/02/23 04:22:55;;;;;;;22.43;15.43;;;10.10;1.00;;;;;;5047213;28;20503;-57
2023/02/23 04:25:21;;;;;;;19.03;14.73;;;10.00;1.00;;;;;;5045875;28;20196;-58
2023/02/23 04:27:48;;;;;;;22.00;15.30;;;9.90;1.00;;;;;;5047531;28;20207;-58
2023/02/23 04:30:13;;;;;;;21.30;15.23;;;9.80;1.00;;;;;;5048730;28;20429;-58
2023/02/23 04:32:39;;;;;;;19.70;14.77;;;9.90;1.00;;;;;;5045032;28;20504;-59
2023/02/23 04:35:05;;;;;;;24.90;16.07;;;9.90;1.00;;;;;;5037997;28;20215;-58
2023/02/23 04:37:31;;;;;;;22.93;14.63;;;9.90;1.00;;;;;;5040547;28;20990;-60
2023/02/23 04:39:56;;;;;;;19.77;15.30;;;9.90;1.00;;;;;;5047592;28;20701;-58
2023/02/23 04:42:22;;;;;;;18.73;14.00;;;10.00;1.00;;;;;;5049869;28;20220;-59
2023/02/23 04:44:48;;;;;;;20.90;15.23;;;9.90;1.00;;;;;;5042439;28;20204;-59
2023/02/23 04:47:14;;;;;;;19.73;14.40;;;9.80;1.00;;;;;;5053327;28;20239;-59
2023/02/23 04:49:40;;;;;;;18.47;14.40;;;9.80;1.00;;;;;;5042974;28;20199;-59
2023/02/23 04:52:06;;;;;;;17.53;14.00;;;9.80;1.00;;;;;;5046801;28;21037;-59
2023/02/23 04:54:32;;;;;;;21.47;14.50;;;9.70;1.00;;;;;;5043705;28;20212;-59
2023/02/23 04:56:57;;;;;;;17.80;14.33;;;9.80;1.00;;;;;;5047668;28;20191;-58
2023/02/23 04:59:23;;;;;;;23.87;15.43;;;9.70;1.00;;;;;;5045431;28;20184;-59
2023/02/23 05:01:51;;;;;;;20.60;15.57;;;9.70;1.00;;;;;;5039360;28;20237;-59
2023/02/23 05:04:17;;;;;;;20.70;15.70;;;9.60;1.00;;;;;;5047008;28;20220;-59
2023/02/23 05:06:42;;;;;;;21.60;16.70;;;9.60;1.00;;;;;;5050972;28;20461;-58
2023/02/23 05:09:08;;;;;;;17.50;14.57;;;9.60;1.00;;;;;;5044599;28;20189;-59
2023/02/23 05:11:34;;;;;;;23.93;15.43;;;9.60;1.00;;;;;;5040569;28;20192;-58
2023/02/23 05:13:59;;;;;;;20.87;14.47;;;9.50;1.00;;;;;;5046513;28;20688;-58
2023/02/23 05:16:25;;;;;;;20.77;16.57;;;9.60;1.00;;;;;;5046532;28;20180;-59
2023/02/23 05:18:51;;;;;;;23.27;14.67;;;9.60;1.00;;;;;;5047821;28;20192;-60
2023/02/23 05:21:16;;;;;;;19.17;14.20;;;9.60;1.00;;;;;;5043835;28;20189;-60
2023/02/23 05:23:42;;;;;;;20.00;14.97;;;9.60;1.00;;;;;;5046560;28;20624;-58
2023/02/23 05:26:11;;;;;;;21.80;15.23;;;9.70;1.00;;;;;;5044927;28;20702;-60
2023/02/23 05:28:38;;;;;;;22.70;15.17;;;9.80;1.00;;;;;;5046627;28;20184;-59
2023/02/23 05:31:04;;;;;;;21.87;15.93;;;9.60;1.00;;;;;;5036804;28;21038;-60
2023/02/23 05:33:40;;;;;;;20.07;15.27;;;9.60;1.00;;;;;;5046680;28;20473;-60
2023/02/23 05:36:07;;;;;;;22.60;15.60;;;9.50;1.00;;;;;;5046379;28;20450;-60
2023/02/23 05:38:33;;;;;;;23.13;18.03;;;9.50;1.00;;;;;;5042563;28;20871;-60
2023/02/23 05:41:04;;;;;;;19.30;14.87;;;9.40;1.00;;;;;;5043522;28;20435;-61
2023/02/23 05:43:30;;;;;;;18.43;14.40;;;9.50;1.00;;;;;;5045157;28;20464;-60
2023/02/23 05:45:55;;;;;;;20.33;16.90;;;9.60;1.00;;;;;;5045366;28;20551;-60
2023/02/23 05:48:22;;;;;;;22.20;15.40;;;9.50;1.00;;;;;;5046616;28;20520;-59
2023/02/23 05:50:48;;;;;;;20.67;17.30;;;9.40;1.00;;;;;;5046987;28;20210;-59
2023/02/23 05:53:14;;;;;;;28.67;18.30;;;9.40;1.00;;;;;;5045604;28;20477;-59
2023/02/23 05:55:39;;;;;;;23.23;17.13;;;9.30;1.00;;;;;;5048199;28;20774;-60
2023/02/23 05:58:05;;;;;;;20.53;14.97;;;9.40;1.00;;;;;;5046737;28;20648;-59
2023/02/23 06:00:31;;;;;;;18.80;15.80;;;9.60;1.00;;;;;;5044375;28;20192;-59
2023/02/23 06:02:56;;;;;;;20.13;16.17;;;9.60;1.00;;;;;;5045468;28;20184;-61
2023/02/23 06:05:22;;;;;;;24.40;16.40;;;9.50;1.00;;;;;;5060970;28;20450;-60
2023/02/23 06:07:48;;;;;;;22.00;15.70;;;9.40;1.00;;;;;;5057310;28;20192;-60
2023/02/23 06:10:13;;;;;;;22.80;15.90;;;9.40;1.00;;;;;;5061503;28;20187;-61
2023/02/23 06:12:39;;;;;;;22.33;16.73;;;9.40;1.00;;;;;;5055432;28;20192;-60
2023/02/23 06:15:05;;;;;;;22.00;16.43;;;9.40;1.00;;;;;;5048037;28;20204;-60
2023/02/23 06:17:31;;;;;;;22.03;14.73;;;9.40;1.00;;;;;;5044294;28;20649;-60
2023/02/23 06:19:57;;;;;;;26.83;17.23;;;9.40;1.00;;;;;;5045969;28;20414;-59
2023/02/23 06:22:23;;;;;;;21.73;16.83;;;9.30;1.00;;;;;;5049161;28;20180;-60
2023/02/23 06:24:49;;;;;;;24.90;17.20;;;9.40;1.00;;;;;;5045671;28;20454;-59
2023/02/23 06:27:14;;;;;;;25.47;16.20;;;9.50;1.00;;;;;;5048708;28;20188;-58
2023/02/23 06:29:40;;;;;;;20.93;16.60;;;9.50;1.00;;;;;;5047563;28;20598;-58
2023/02/23 06:32:06;;;;;;;24.00;16.50;;;9.60;1.00;;;;;;5047614;28;20188;-60
2023/02/23 06:34:33;;;;;;;21.57;16.47;;;9.50;1.00;;;;;;5053032;28;20444;-60
2023/02/23 06:36:58;;;;;;;23.80;16.10;;;9.70;1.00;;;;;;5047441;28;20425;-59
2023/02/23 06:39:24;;;;;;;24.93;17.43;;;9.70;1.00;;;;;;5048074;28;20524;-60
2023/02/23 06:41:50;;;;;;;20.93;15.70;;;9.70;1.00;;;;;;5047368;28;20194;-59
2023/02/23 06:44:15;;;;;;;24.97;15.27;;;9.70;1.00;;;;;;5047537;28;20188;-60
2023/02/23 06:46:41;;;;;;;25.43;16.67;;;9.70;1.00;;;;;;5047164;28;20204;-59
2023/02/23 06:49:06;;;;;;;22.43;17.27;;;9.80;1.00;;;;;;5048145;28;20196;-60
2023/02/23 06:51:32;;;;;;;22.30;17.20;;;9.90;1.00;;;;;;5048707;28;20203;-58
2023/02/23 06:53:58;;;;;;;22.10;16.77;;;9.90;1.00;;;;;;5048808;28;20760;-60
2023/02/23 06:56:23;;;;;;;23.00;15.97;;;9.90;1.00;;;;;;5049205;28;20279;-60
2023/02/23 06:58:49;;;;;;;22.53;17.20;;;10.00;1.00;;;;;;5050753;28;20184;-60
2023/02/23 07:01:15;;;;;;;26.10;17.17;;;10.10;1.00;;;;;;5049110;28;20658;-59
2023/02/23 07:03:41;;;;;;;24.60;16.80;;;10.00;1.00;;;;;;5049145;28;20188;-60
2023/02/23 07:06:07;;;;;;;23.60;17.03;;;10.00;1.00;;;;;;5048951;28;20736;-60
2023/02/23 07:08:33;;;;;;;22.40;17.53;;;10.10;1.00;;;;;;5055306;28;20195;-61
2023/02/23 07:11:12;;;;;;;21.20;15.70;;;10.10;1.00;;;;;;5058224;28;20592;-59
2023/02/23 07:13:38;;;;;;;22.27;17.80;;;10.00;1.00;;;;;;5049070;28;20524;-59
2023/02/23 07:16:04;;;;;;;24.47;17.47;;;10.20;1.00;;;;;;5049685;28;21020;-60
2023/02/23 07:18:30;;;;;;;24.23;17.23;;;10.30;1.00;;;;;;5048601;28;20443;-60
2023/02/23 07:20:56;;;;;;;26.30;17.37;;;10.30;1.00;;;;;;5050788;28;20509;-60
2023/02/23 07:23:22;;;;;;;24.43;18.50;;;10.40;1.00;;;;;;5050606;28;20349;-60
2023/02/23 07:25:52;;;;;;;27.00;18.63;;;10.50;1.00;;;;;;5045940;28;20861;-59
2023/02/23 07:28:18;;;;;;;24.53;17.23;;;10.50;1.00;;;;;;5050679;28;20184;-60
2023/02/23 07:30:44;;;;;;;24.40;17.67;;;10.60;1.00;;;;;;5051789;28;20448;-60
2023/02/23 07:33:09;;;;;;;22.73;17.80;;;10.70;1.00;;;;;;5052045;28;20478;-60
2023/02/23 07:35:35;;;;;;;29.87;19.50;;;11.10;1.00;;;;;;5049672;28;20184;-59
2023/02/23 07:38:00;;;;;;;25.57;18.13;;;10.80;1.00;;;;;;5050952;28;20535;-58
2023/02/23 07:40:26;;;;;;;24.13;17.53;;;10.80;1.00;;;;;;5050593;28;20201;-59
2023/02/23 07:42:52;;;;;;;24.00;17.73;;;10.90;1.00;;;;;;5050163;28;20189;-60
2023/02/23 07:45:18;;;;;;;25.90;17.73;;;10.90;1.00;;;;;;5057382;28;20191;-60
2023/02/23 07:47:43;;;;;;;24.90;17.70;;;10.90;1.00;;;;;;5063075;28;20203;-60
2023/02/23 07:50:11;;;;;;;25.63;18.57;;;11.10;1.00;;;;;;5052840;28;20197;-59
2023/02/23 07:52:38;;;;;;;23.27;17.80;;;11.20;1.00;;;;;;5052885;28;20236;-59
2023/02/23 07:55:05;;;;;;;28.13;20.30;;;11.20;1.00;;;;;;5052077;28;20458;-59
2023/02/23 07:57:31;;;;;;;28.13;18.50;;;11.20;1.00;;;;;;5050976;28;21040;-60
2023/02/23 07:59:57;;;;;;;24.50;16.90;;;11.20;1.00;;;;;;5049939;28;20501;-59
2023/02/23 08:02:22;;;;;;;23.43;17.93;;;11.20;1.00;;;;;;5050772;28;20192;-60
2023/02/23 08:04:49;;;;;;;25.03;18.73;;;11.10;1.00;;;;;;5050282;28;20227;-61
2023/02/23 08:07:15;;;;;;;25.70;18.57;;;11.30;1.00;;;;;;5048166;28;20192;-61
2023/02/23 08:09:40;;;;;;;25.00;18.00;;;11.40;1.00;;;;;;5050005;28;20458;-60
2023/02/23 08:12:06;;;;;;;24.50;18.57;;;11.50;1.00;;;;;;5049289;28;20215;-60
2023/02/23 08:14:32;;;;;;;27.57;18.70;;;11.70;1.00;;;;;;5048876;28;20289;-60
2023/02/23 08:17:00;;;;;;;25.37;17.97;;;11.70;1.00;;;;;;5050932;28;20531;-59
2023/02/23 08:19:26;;;;;;;22.53;17.77;;;11.80;1.00;;;;;;5067081;28;20597;-59
2023/02/23 08:21:52;;;;;;;27.80;18.40;;;11.90;1.00;;;;;;5047935;28;20789;-59
2023/02/23 08:24:17;;;;;;;29.47;21.30;;;11.90;1.00;;;;;;5050683;28;20508;-59
2023/02/23 08:26:43;;;;;;;25.90;18.50;;;12.00;1.00;;;;;;5048922;28;20200;-59
2023/02/23 08:29:09;;;;;;;26.10;19.00;;;12.10;1.00;;;;;;5049759;28;20193;-61
2023/02/23 08:31:35;;;;;;;21.73;17.83;;;12.10;1.00;;;;;;5049628;28;20192;-61
2023/02/23 08:34:01;;;;;;;29.90;18.10;;;12.10;1.00;;;;;;5055347;28;20863;-58
2023/02/23 08:36:26;;;;;;;24.70;17.97;;;12.10;1.00;;;;;;5062692;28;20212;-57
2023/02/23 08:38:55;;;;;;;22.10;17.93;;;12.10;1.00;;;;;;5059799;28;20257;-57
2023/02/23 08:41:20;;;;;;;28.47;17.13;;;12.20;1.00;;;;;;5061693;28;20187;-57
2023/02/23 08:43:47;;;;;;;19.03;16.97;;;12.30;1.00;;;;;;5058475;28;20450;-57
2023/02/23 08:46:13;;;;;;;25.30;17.90;;;12.40;1.00;;;;;;5056419;28;20188;-58
2023/02/23 08:48:39;;;;;;;27.13;17.00;;;12.60;1.00;;;;;;5061254;28;20427;-57
2023/02/23 08:51:05;;;;;;;22.40;16.50;;;12.60;1.00;;;;;;5062518;28;20180;-58
2023/02/23 08:53:32;;;;;;;20.77;16.60;;;12.70;1.00;;;;;;5054666;28;20991;-58
2023/02/23 08:56:03;;;;;;;19.47;16.53;;;12.80;1.00;;;;;;5049422;28;20938;-58
2023/02/23 08:58:30;;;;;;;22.53;16.60;;;12.90;1.00;;;;;;5055917;28;20417;-58
2023/02/23 09:00:55;;;;;;;24.10;17.77;;;12.90;1.00;;;;;;5049705;28;20426;-58
2023/02/23 09:03:22;;;;;;;24.47;16.90;;;13.00;1.00;;;;;;5056073;28;20442;-58
2023/02/23 09:05:48;;;;;;;26.60;18.00;;;13.00;1.00;;;;;;5051364;28;20192;-58
2023/02/23 09:08:15;;;;;;;19.80;16.83;;;12.90;1.00;;;;;;5049331;28;21027;-58
2023/02/23 09:10:42;;;;;;;22.93;16.57;;;13.00;1.00;;;;;;5049907;28;20442;-58
2023/02/23 09:13:10;;;;;;;21.63;17.10;;;12.90;1.00;;;;;;5058862;28;20474;-58
2023/02/23 09:15:37;;;;;;;20.40;16.80;;;12.90;1.00;;;;;;5049154;28;20443;-59
2023/02/23 09:18:03;;;;;;;21.37;16.07;;;13.00;1.00;;;;;;5050286;28;20425;-58
2023/02/23 09:20:29;;;;;;;21.77;16.50;;;13.10;1.00;;;;;;5051379;28;20451;-58
2023/02/23 09:22:54;;;;;;;22.30;16.90;;;13.30;1.00;;;;;;5053729;28;20207;-59
2023/02/23 09:25:21;;;;;;;21.20;16.13;;;13.30;1.00;;;;;;5054558;28;20192;-59
2023/02/23 09:27:48;;;;;;;21.70;17.77;;;13.40;1.00;;;;;;5047933;28;20730;-59
2023/02/23 09:30:16;;;;;;;21.40;16.77;;;13.40;1.00;;;;;;5048453;28;20497;-58
2023/02/23 09:32:46;;;;;;;25.90;18.00;;;13.50;1.00;;;;;;5050137;28;20907;-58
2023/02/23 09:35:16;;;;;;;19.70;16.70;;;13.50;1.00;;;;;;5048729;28;20524;-58
2023/02/23 09:37:49;;;;;;;20.17;16.40;;;13.60;1.00;;;;;;5049840;28;20456;-59
2023/02/23 09:40:19;;;;;;;20.90;15.90;;;13.80;1.00;;;;;;5051406;28;20501;-59
2023/02/23 09:42:53;;;;;;;22.40;16.00;;;14.00;1.00;;;;;;5048051;28;20461;-58
2023/02/23 09:45:27;;;;;;;20.50;15.37;;;14.10;1.00;;;;;;5062343;28;20413;-58
2023/02/23 09:48:01;;;;;;;20.97;16.83;;;14.30;1.00;;;;;;5047861;28;20498;-59
2023/02/23 09:50:29;;;;;;;18.60;16.57;;;14.60;1.00;;;;;;5047136;28;20422;-58
2023/02/23 09:53:24;;;;;;;19.93;16.30;;;14.80;1.00;;;;;;5058170;28;20447;-58
2023/02/23 09:55:52;;;;;;;21.77;16.30;;;14.80;1.00;;;;;;5046429;28;20447;-58
2023/02/23 09:58:30;;;;;;;20.00;15.17;;;15.10;1.00;;;;;;5048034;28;20446;-58
2023/02/23 10:01:08;;;;;;;21.30;17.33;;;15.30;1.00;;;;;;5057646;28;20424;-58
2023/02/23 10:03:39;;;;;;;19.10;15.50;;;15.40;1.00;;;;;;5053069;28;20424;-58
2023/02/23 10:06:12;;;;;;;21.93;15.47;;;15.40;1.00;;;;;;5054552;28;20486;-59
2023/02/23 10:08:57;;;;;;;19.37;15.03;;;15.40;1.00;;;;;;5047330;28;20525;-60
2023/02/23 10:11:32;;;;;;;22.33;16.93;;;15.50;1.00;;;;;;5054688;28;20412;-58
2023/02/23 10:14:12;;;;;;;20.47;15.90;;;15.60;1.00;;;;;;5058521;28;20461;-59
2023/02/23 10:16:59;;;;;;;17.03;13.77;;;15.70;1.00;;;;;;5057331;28;20424;-58
2023/02/23 10:19:36;;;;;;;19.00;15.17;;;15.80;1.00;;;;;;5058638;28;20408;-59
2023/02/23 10:22:05;;;;;;;17.77;15.43;;;16.00;1.00;;;;;;5061075;28;20496;-58
2023/02/23 10:24:42;;;;;;;17.20;14.70;;;16.30;1.00;;;;;;5047371;28;20451;-59
2023/02/23 10:27:10;;;;;;;20.77;16.20;;;16.50;1.00;;;;;;5049363;28;20941;-58
2023/02/23 10:29:50;;;;;;;17.53;14.90;;;16.60;1.00;;;;;;5048084;28;20922;-58
2023/02/23 10:32:39;;;;;;;19.27;16.17;;;16.70;1.00;;;;;;5048649;28;20975;-58
2023/02/23 10:35:18;;;;;;;17.47;15.53;;;16.60;1.00;;;;;;5054729;28;20447;-57
2023/02/23 10:37:45;;;;;;;19.20;17.13;;;16.60;1.00;;;;;;5048607;28;20442;-58
2023/02/23 10:40:31;;;;;;;19.60;16.17;;;16.70;1.00;;;;;;5049733;28;20925;-58
2023/02/23 10:43:00;;;;;;;19.33;15.17;;;16.70;1.00;;;;;;5049593;28;20405;-58
2023/02/23 10:45:28;;;;;;;21.60;15.30;;;16.70;1.00;;;;;;5047531;28;20818;-59
2023/02/23 10:48:05;;;;;;;18.37;14.90;;;16.80;1.00;;;;;;5047401;28;20451;-58
2023/02/23 10:50:32;;;;;;;17.60;15.37;;;16.70;1.00;;;;;;5047192;28;20972;-57
2023/02/23 10:53:03;;;;;;;18.03;16.13;;;16.60;1.00;;;;;;5047011;28;20501;-58
2023/02/23 10:55:31;;;;;;;19.57;14.77;;;16.50;1.00;;;;;;5045567;28;20448;-58
2023/02/23 10:58:17;;;;;;;17.70;15.77;;;16.40;1.00;;;;;;5048402;28;20417;-58
2023/02/23 11:00:58;;;;;;;19.60;15.03;;;16.60;1.00;;;;;;5045894;28;20924;-56
2023/02/23 11:03:41;;;;;;;17.80;15.50;;;16.80;1.00;;;;;;5048830;28;20408;-58
2023/02/23 11:06:29;;;;;;;17.30;15.50;;;17.10;1.00;;;;;;5048382;28;21136;-57
2023/02/23 11:08:55;;;;;;;17.80;13.60;;;17.00;1.00;;;;;;5047972;28;20421;-58
2023/02/23 11:11:28;;;;;;;18.43;15.23;;;17.10;1.00;;;;;;5048036;28;20424;-57
2023/02/23 11:13:55;;;;;;;18.90;14.87;;;17.30;1.00;;;;;;5046565;28;20212;-57
2023/02/23 11:16:29;;;;;;;16.10;14.43;;;17.40;1.00;;;;;;5047056;28;20983;-58
2023/02/23 11:19:02;;;;;;;16.70;13.90;;;17.40;1.00;;;;;;5047561;28;20841;-57
2023/02/23 11:21:32;;;;;;;18.63;15.00;;;17.40;1.00;;;;;;5045728;28;20413;-58
2023/02/23 11:24:09;;;;;;;18.90;14.70;;;17.70;1.00;;;;;;5047882;28;20453;-57
2023/02/23 11:26:34;;;;;;;15.93;13.90;;;17.80;1.00;;;;;;5049205;28;20446;-58
2023/02/23 11:29:10;;;;;;;15.03;13.43;;;18.10;1.00;;;;;;5065177;28;20426;-58
2023/02/23 11:31:36;;;;;;;15.20;13.10;;;18.10;1.00;;;;;;5054614;28;20227;-58
2023/02/23 11:34:04;;;;;;;16.40;13.17;;;18.10;1.00;;;;;;5062630;28;20513;-58
2023/02/23 11:36:37;;;;;;;15.83;13.30;;;18.20;1.00;;;;;;5048876;28;20195;-59
2023/02/23 11:39:04;;;;;;;15.97;13.60;;;18.50;1.00;;;;;;5048776;28;20439;-58
2023/02/23 11:41:33;;;;;;;15.60;13.70;;;18.40;1.00;;;;;;5047768;28;20580;-58
2023/02/23 11:44:01;;;;;;;14.97;13.37;;;18.60;1.00;;;;;;5047177;28;20582;-57
2023/02/23 11:46:29;;;;;;;15.70;13.33;;;18.70;1.00;;;;;;5046815;28;20485;-59
2023/02/23 11:49:02;;;;;;;16.33;14.20;;;18.80;1.00;;;;;;5049469;28;20833;-60
2023/02/23 11:51:32;;;;;;;14.50;12.90;;;19.00;1.00;;;;;;5046843;28;20445;-58
2023/02/23 11:53:59;;;;;;;15.53;13.93;;;18.90;1.00;;;;;;5051794;28;20473;-57
2023/02/23 11:56:26;;;;;;;13.50;12.10;;;18.90;1.00;;;;;;5047557;28;20488;-58
2023/02/23 11:58:59;;;;;;;14.23;12.73;;;19.10;1.00;;;;;;5047345;28;20422;-59
2023/02/23 12:01:46;;;;;;;15.87;13.20;;;19.00;1.00;;;;;;5046378;28;20485;-57
2023/02/23 12:04:29;;;;;;;12.87;11.57;;;19.00;1.00;;;;;;5048174;28;20455;-59
2023/02/23 12:07:14;;;;;;;14.47;12.50;;;18.70;1.00;;;;;;5046733;28;20421;-58
2023/02/23 12:09:42;;;;;;;13.57;12.17;;;18.80;1.00;;;;;;5048099;28;20528;-58
2023/02/23 12:12:17;;;;;;;13.90;12.50;;;18.80;1.00;;;;;;5046692;28;20439;-58
2023/02/23 12:14:55;;;;;;;15.63;14.03;;;18.80;99.90;;;;;;5050233;28;20549;-58
2023/02/23 12:17:26;;;;;;;14.13;12.50;;;19.00;99.90;;;;;;5051588;28;20428;-58
2023/02/23 12:20:03;;;;;;;13.60;12.20;;;18.90;99.90;;;;;;5059370;28;20425;-57
2023/02/23 12:22:34;;;;;;;13.63;12.10;;;18.70;99.90;;;;;;5052154;28;20420;-57
2023/02/23 12:25:15;;;;;;;14.37;12.63;;;18.40;99.90;;;;;;5052986;28;20462;-60
2023/02/23 12:27:45;;;;;;;14.60;12.37;;;18.20;99.90;;;;;;5052075;28;20449;-58
2023/02/23 12:30:23;;;;;;;13.73;12.27;;;18.30;99.90;;;;;;5048128;28;20963;-59
2023/02/23 12:33:19;;;;;;;13.80;12.40;;;18.20;99.90;;;;;;5052259;28;20937;-57
2023/02/23 12:35:49;;;;;;;13.30;11.43;;;18.20;99.90;;;;;;5046961;28;20516;-58
2023/02/23 12:38:32;;;;;;;15.77;12.70;;;18.10;99.90;;;;;;5053972;28;20443;-60
2023/02/23 12:41:12;;;;;;;15.10;13.00;;;18.30;99.90;;;;;;5048345;28;20454;-59
2023/02/23 12:43:56;;;;;;;14.77;12.57;;;18.30;99.90;;;;;;5051905;28;20445;-58
2023/02/23 12:46:27;;;;;;;17.40;13.03;;;18.20;99.90;;;;;;5051654;28;20443;-58
2023/02/23 12:49:02;;;;;;;12.93;11.33;;;17.90;99.90;;;;;;5051559;28;20458;-58
2023/02/23 12:52:09;;;;;;;13.90;11.33;;;18.00;99.90;;;;;;5065693;28;20454;-58
2023/02/23 12:54:35;;;;;;;14.10;12.23;;;18.20;99.90;;;;;;4989284;28;20444;-60
2023/02/23 12:57:10;;;;;;;16.60;12.93;;;18.30;99.90;;;;;;5058330;28;20430;-58
2023/02/23 12:59:48;;;;;;;13.20;11.80;;;18.40;99.90;;;;;;5071312;28;20520;-57
2023/02/23 13:02:44;;;;;;;14.73;13.20;;;18.60;99.90;;;;;;5066939;28;20421;-57
2023/02/23 13:05:40;;;;;;;16.37;12.97;;;18.50;99.90;;;;;;5057556;28;20434;-57
2023/02/23 13:08:11;;;;;;;15.47;12.17;;;18.60;99.90;;;;;;5029569;28;20821;-58
2023/02/23 13:10:58;;;;;;;13.63;12.23;;;18.60;99.90;;;;;;5052853;28;20478;-58
2023/02/23 13:13:44;;;;;;;14.90;13.30;;;18.50;99.90;;;;;;5051285;28;20447;-57
2023/02/23 13:16:36;;;;;;;15.90;12.90;;;18.40;99.90;;;;;;5051184;28;20397;-58
2023/02/23 13:19:19;;;;;;;14.97;12.80;;;18.20;99.90;;;;;;5047861;28;20773;-57
2023/02/23 13:21:49;;;;;;;15.83;13.37;;;18.60;99.90;;;;;;5051503;28;20466;-57
2023/02/23 13:24:25;;;;;;;14.60;12.97;;;18.50;99.90;;;;;;5050494;28;20911;-57
2023/02/23 13:27:14;;;;;;;15.30;12.70;;;18.30;99.90;;;;;;5054496;28;20897;-57
2023/02/23 13:29:42;;;;;;;14.13;12.63;;;18.10;99.90;;;;;;5050679;28;20775;-57
2023/02/23 13:32:14;;;;;;;14.30;12.67;;;18.00;99.90;;;;;;5050721;28;20439;-57
2023/02/23 13:34:51;;;;;;;14.50;13.00;;;18.10;99.90;;;;;;5050656;28;20896;-57
2023/02/23 13:37:19;;;;;;;14.10;12.60;;;18.10;99.90;;;;;;5050864;28;20474;-57
2023/02/23 13:39:48;;;;;;;17.07;13.43;;;18.00;99.90;;;;;;5050693;28;20405;-57
2023/02/23 13:42:25;;;;;;;17.33;14.20;;;17.80;99.90;;;;;;5050818;28;20443;-57
2023/02/23 13:45:15;;;;;;;14.60;13.00;;;17.90;99.90;;;;;;5053421;28;20469;-57
2023/02/23 13:47:45;;;;;;;15.40;13.70;;;17.50;99.90;;;;;;5050114;28;20840;-58
2023/02/23 13:51:05;;;;;;;17.00;14.13;;;17.40;99.90;;;;;;5050310;28;20424;-59
2023/02/23 13:53:43;;;;;;;14.67;13.10;;;17.20;99.90;;;;;;4987882;28;20454;-58
2023/02/23 13:56:15;;;;;;;15.63;13.70;;;17.00;99.90;;;;;;5050251;28;20405;-56
2023/02/23 13:59:07;;;;;;;16.50;13.70;;;16.80;1.00;;;;;;5050095;28;20482;-58
2023/02/23 14:01:37;;;;;;;17.60;14.50;;;16.70;1.00;;;;;;5050453;28;20526;-57
2023/02/23 14:04:11;;;;;;;17.30;13.60;;;16.60;1.00;;;;;;5050543;28;20447;-57
2023/02/23 14:06:39;;;;;;;17.43;13.40;;;16.40;1.00;;;;;;5050204;28;20417;-58
2023/02/23 14:09:20;;;;;;;15.80;12.60;;;16.30;1.00;;;;;;5050010;28;20807;-58
2023/02/23 14:12:18;;;;;;;14.73;12.30;;;16.40;1.00;;;;;;5049984;28;20442;-57
2023/02/23 14:14:45;;;;;;;12.77;11.47;;;16.30;1.00;;;;;;5050019;28;20864;-59
2023/02/23 14:17:13;;;;;;;15.70;12.93;;;16.20;1.00;;;;;;5052720;28;20460;-56
2023/02/23 14:20:01;;;;;;;12.73;11.00;;;16.00;1.00;;;;;;5049879;28;20438;-59